createdAt,value
2018-12-04T00:00:37.429Z,0.00
2018-12-04T00:01:37.334Z,0.00
2018-12-04T00:02:37.321Z,0.00
2018-12-04T00:03:37.275Z,0.00
2018-12-04T00:04:37.539Z,0.00
2018-12-04T00:05:37.252Z,0.00
2018-12-04T00:06:37.257Z,0.00
2018-12-04T00:07:37.232Z,0.00
2018-12-04T00:08:37.398Z,0.00
2018-12-04T00:09:37.210Z,0.00
2018-12-04T00:10:37.213Z,0.00
2018-12-04T00:11:37.575Z,0.00
2018-12-04T00:12:37.172Z,0.00
2018-12-04T00:13:37.180Z,0.00
2018-12-04T00:14:37.226Z,0.00
2018-12-04T00:15:37.594Z,0.00
2018-12-04T00:16:37.159Z,0.00
2018-12-04T00:17:37.162Z,0.00
2018-12-04T00:18:37.104Z,0.00
2018-12-04T00:19:37.162Z,0.00
2018-12-04T00:20:37.099Z,0.00
2018-12-04T00:21:37.075Z,0.00
2018-12-04T00:22:37.076Z,0.00
2018-12-04T00:23:37.074Z,0.00
2018-12-04T00:24:37.041Z,0.00
2018-12-04T00:25:37.054Z,0.00
2018-12-04T00:26:37.049Z,0.00
2018-12-04T00:27:37.115Z,0.00
2018-12-04T00:28:37.045Z,0.00
2018-12-04T00:29:36.982Z,0.00
2018-12-04T00:30:36.985Z,0.00
2018-12-04T00:31:36.967Z,0.00
2018-12-04T00:32:37.039Z,0.00
2018-12-04T00:33:36.965Z,0.00
2018-12-04T00:34:36.948Z,0.00
2018-12-04T00:35:36.963Z,0.00
2018-12-04T00:36:36.902Z,0.00
2018-12-04T00:37:36.933Z,0.00
2018-12-04T00:38:36.936Z,0.00
2018-12-04T00:39:36.879Z,0.00
2018-12-04T00:40:36.867Z,0.00
2018-12-04T00:41:36.858Z,0.00
2018-12-04T00:42:36.866Z,0.00
2018-12-04T00:43:36.857Z,0.00
2018-12-04T00:44:36.825Z,0.00
2018-12-04T00:45:36.817Z,0.00
2018-12-04T00:46:36.797Z,0.00
2018-12-04T00:47:36.790Z,0.00
2018-12-04T00:48:36.805Z,0.00
2018-12-04T00:49:36.795Z,0.00
2018-12-04T00:50:36.752Z,0.00
2018-12-04T00:51:36.789Z,0.00
2018-12-04T00:52:36.736Z,0.00
2018-12-04T00:53:36.720Z,0.00
2018-12-04T00:54:36.723Z,0.00
2018-12-04T00:55:36.721Z,0.00
2018-12-04T00:56:36.690Z,0.00
2018-12-04T00:57:36.682Z,0.00
2018-12-04T00:58:36.688Z,0.00
2018-12-04T00:59:36.708Z,0.00
2018-12-04T01:00:36.672Z,0.00
2018-12-04T01:01:36.639Z,0.00
2018-12-04T01:02:36.632Z,0.00
2018-12-04T01:03:36.614Z,0.00
2018-12-04T01:04:36.600Z,0.00
2018-12-04T01:05:36.633Z,0.00
2018-12-04T01:06:36.601Z,0.00
2018-12-04T01:07:36.615Z,0.00
2018-12-04T01:08:36.573Z,0.00
2018-12-04T01:09:36.552Z,0.00
2018-12-04T01:10:36.545Z,0.00
2018-12-04T01:11:36.532Z,0.00
2018-12-04T01:12:36.537Z,0.00
2018-12-04T01:13:36.504Z,0.00
2018-12-04T01:14:36.571Z,0.00
2018-12-04T01:15:36.596Z,0.00
2018-12-04T01:16:36.481Z,0.00
2018-12-04T01:17:36.468Z,0.00
2018-12-04T01:18:36.529Z,0.00
2018-12-04T01:19:36.494Z,0.00
2018-12-04T01:20:37.542Z,0.00
2018-12-04T01:21:36.425Z,0.00
2018-12-04T01:22:36.933Z,0.00
2018-12-04T01:23:36.435Z,0.00
2018-12-04T01:24:36.446Z,0.00
2018-12-04T01:25:36.375Z,0.00
2018-12-04T01:26:36.373Z,0.00
2018-12-04T01:27:36.368Z,0.00
2018-12-04T01:28:36.374Z,0.00
2018-12-04T01:29:36.351Z,0.00
2018-12-04T01:30:36.354Z,0.00
2018-12-04T01:31:36.311Z,0.00
2018-12-04T01:32:36.316Z,0.00
2018-12-04T01:33:36.306Z,0.00
2018-12-04T01:34:36.309Z,0.00
2018-12-04T01:35:36.275Z,0.00
2018-12-04T01:36:36.265Z,0.00
2018-12-04T01:37:36.256Z,0.00
2018-12-04T01:38:36.292Z,0.00
2018-12-04T01:39:36.229Z,0.00
2018-12-04T01:40:36.228Z,0.00
2018-12-04T01:41:36.227Z,0.00
2018-12-04T01:42:36.206Z,0.00
2018-12-04T01:43:36.218Z,0.00
2018-12-04T01:44:36.199Z,0.00
2018-12-04T01:45:36.229Z,0.00
2018-12-04T01:46:36.229Z,0.00
2018-12-04T01:47:36.203Z,0.00
2018-12-04T01:48:36.254Z,0.00
2018-12-04T01:49:36.122Z,0.00
2018-12-04T01:50:36.129Z,0.00
2018-12-04T01:51:36.124Z,0.00
2018-12-04T01:52:36.169Z,0.00
2018-12-04T01:53:36.089Z,0.00
2018-12-04T01:54:36.154Z,0.00
2018-12-04T01:55:36.071Z,0.00
2018-12-04T01:56:36.085Z,0.00
2018-12-04T01:57:36.036Z,0.00
2018-12-04T01:58:36.060Z,0.00
2018-12-04T01:59:36.041Z,0.00
2018-12-04T02:00:35.993Z,0.00
2018-12-04T02:01:36.934Z,0.00
2018-12-04T02:02:36.049Z,0.00
2018-12-04T02:03:36.000Z,0.00
2018-12-04T02:04:35.956Z,0.00
2018-12-04T02:05:35.994Z,0.00
2018-12-04T02:06:35.971Z,0.00
2018-12-04T02:07:35.933Z,0.00
2018-12-04T02:08:35.920Z,0.00
2018-12-04T02:09:35.963Z,0.00
2018-12-04T02:10:35.898Z,0.00
2018-12-04T02:11:35.888Z,0.00
2018-12-04T02:12:36.438Z,0.00
2018-12-04T02:13:35.850Z,0.00
2018-12-04T02:14:35.855Z,0.00
2018-12-04T02:15:35.939Z,0.00
2018-12-04T02:16:35.834Z,0.00
2018-12-04T02:17:35.819Z,0.00
2018-12-04T02:18:35.801Z,0.00
2018-12-04T02:19:35.888Z,0.00
2018-12-04T02:20:35.786Z,0.00
2018-12-04T02:21:35.780Z,0.00
2018-12-04T02:22:36.508Z,0.00
2018-12-04T02:23:35.761Z,0.00
2018-12-04T02:24:35.759Z,0.00
2018-12-04T02:25:35.744Z,0.00
2018-12-04T02:26:35.777Z,0.00
2018-12-04T02:27:35.706Z,0.00
2018-12-04T02:28:35.696Z,0.00
2018-12-04T02:29:35.727Z,0.00
2018-12-04T02:30:35.725Z,0.00
2018-12-04T02:31:35.668Z,0.00
2018-12-04T02:32:35.657Z,0.00
2018-12-04T02:33:35.712Z,0.00
2018-12-04T02:34:35.667Z,0.00
2018-12-04T02:35:35.632Z,0.00
2018-12-04T02:36:35.675Z,0.00
2018-12-04T02:37:35.600Z,0.00
2018-12-04T02:38:35.598Z,0.00
2018-12-04T02:39:35.577Z,0.00
2018-12-04T02:40:35.573Z,0.00
2018-12-04T02:41:35.687Z,0.00
2018-12-04T02:42:35.549Z,0.00
2018-12-04T02:43:35.597Z,0.00
2018-12-04T02:44:35.527Z,0.00
2018-12-04T02:45:35.510Z,0.00
2018-12-04T02:46:35.532Z,0.00
2018-12-04T02:47:35.506Z,0.00
2018-12-04T02:48:35.483Z,0.00
2018-12-04T02:49:35.538Z,0.00
2018-12-04T02:50:35.464Z,0.00
2018-12-04T02:51:35.441Z,0.00
2018-12-04T02:52:35.456Z,0.00
2018-12-04T02:53:35.440Z,0.00
2018-12-04T02:54:35.475Z,0.00
2018-12-04T02:55:35.400Z,0.00
2018-12-04T02:56:35.387Z,0.00
2018-12-04T02:57:35.396Z,0.00
2018-12-04T02:58:35.372Z,0.00
2018-12-04T02:59:35.361Z,0.00
2018-12-04T03:00:35.366Z,0.00
2018-12-04T03:01:35.347Z,0.00
2018-12-04T03:02:35.329Z,0.00
2018-12-04T03:03:35.314Z,0.00
2018-12-04T03:04:35.353Z,0.00
2018-12-04T03:05:35.287Z,0.00
2018-12-04T03:06:35.343Z,0.00
2018-12-04T03:07:35.282Z,0.00
2018-12-04T03:08:35.263Z,0.00
2018-12-04T03:09:35.257Z,0.00
2018-12-04T03:10:35.300Z,0.00
2018-12-04T03:11:35.299Z,0.00
2018-12-04T03:12:35.212Z,0.00
2018-12-04T03:13:35.220Z,0.00
2018-12-04T03:14:35.191Z,0.00
2018-12-04T03:15:35.194Z,0.00
2018-12-04T03:16:35.222Z,0.00
2018-12-04T03:17:35.185Z,0.00
2018-12-04T03:18:35.152Z,0.00
2018-12-04T03:19:35.134Z,0.00
2018-12-04T03:20:35.142Z,0.00
2018-12-04T03:21:35.123Z,0.00
2018-12-04T03:22:35.173Z,0.00
2018-12-04T03:23:35.140Z,0.00
2018-12-04T03:24:35.081Z,0.00
2018-12-04T03:25:35.106Z,0.00
2018-12-04T03:26:35.076Z,0.00
2018-12-04T03:27:35.064Z,0.00
2018-12-04T03:28:35.044Z,0.00
2018-12-04T03:29:35.178Z,0.00
2018-12-04T03:30:35.070Z,0.00
2018-12-04T03:31:35.007Z,0.00
2018-12-04T03:32:36.025Z,0.00
2018-12-04T03:33:34.988Z,0.00
2018-12-04T03:34:34.977Z,0.00
2018-12-04T03:35:34.992Z,0.00
2018-12-04T03:36:35.010Z,0.00
2018-12-04T03:37:34.946Z,0.00
2018-12-04T03:38:34.940Z,0.00
2018-12-04T03:39:34.955Z,0.00
2018-12-04T03:40:34.936Z,0.00
2018-12-04T03:41:34.909Z,0.00
2018-12-04T03:42:34.891Z,0.00
2018-12-04T03:43:34.878Z,0.00
2018-12-04T03:44:34.874Z,0.00
2018-12-04T03:45:34.904Z,0.00
2018-12-04T03:46:34.843Z,0.00
2018-12-04T03:47:34.834Z,0.00
2018-12-04T03:48:34.833Z,0.00
2018-12-04T03:49:34.817Z,0.00
2018-12-04T03:50:34.846Z,0.00
2018-12-04T03:51:34.799Z,0.00
2018-12-04T03:52:34.773Z,0.00
2018-12-04T03:53:34.820Z,0.00
2018-12-04T03:54:34.754Z,0.00
2018-12-04T03:55:34.771Z,0.00
2018-12-04T03:56:34.764Z,0.00
2018-12-04T03:57:34.783Z,0.00
2018-12-04T03:58:34.710Z,0.00
2018-12-04T03:59:34.696Z,0.00
2018-12-04T04:00:34.712Z,0.00
2018-12-04T04:01:34.697Z,0.00
2018-12-04T04:02:34.675Z,0.00
2018-12-04T04:03:34.706Z,0.00
2018-12-04T04:04:34.651Z,0.00
2018-12-04T04:05:34.633Z,0.00
2018-12-04T04:06:34.641Z,0.00
2018-12-04T04:07:34.649Z,0.00
2018-12-04T04:08:34.616Z,0.00
2018-12-04T04:09:34.597Z,0.00
2018-12-04T04:10:34.586Z,0.00
2018-12-04T04:11:34.600Z,0.00
2018-12-04T04:12:34.558Z,0.00
2018-12-04T04:13:34.559Z,0.00
2018-12-04T04:14:34.601Z,0.00
2018-12-04T04:15:34.522Z,0.00
2018-12-04T04:16:34.508Z,0.00
2018-12-04T04:17:34.510Z,0.00
2018-12-04T04:18:34.498Z,0.00
2018-12-04T04:19:34.498Z,0.00
2018-12-04T04:20:34.490Z,0.00
2018-12-04T04:21:34.502Z,0.00
2018-12-04T04:22:34.454Z,0.00
2018-12-04T04:23:34.442Z,0.00
2018-12-04T04:24:34.448Z,0.00
2018-12-04T04:25:34.418Z,0.00
2018-12-04T04:26:34.410Z,0.00
2018-12-04T04:27:34.388Z,0.00
2018-12-04T04:28:34.383Z,0.00
2018-12-04T04:29:34.452Z,0.00
2018-12-04T04:30:34.363Z,0.00
2018-12-04T04:31:34.383Z,0.00
2018-12-04T04:32:34.340Z,0.00
2018-12-04T04:33:34.328Z,0.00
2018-12-04T04:34:34.318Z,0.00
2018-12-04T04:35:34.318Z,0.00
2018-12-04T04:36:34.340Z,0.00
2018-12-04T04:37:34.288Z,0.00
2018-12-04T04:38:34.270Z,0.00
2018-12-04T04:39:34.267Z,0.00
2018-12-04T04:40:34.267Z,0.00
2018-12-04T04:41:34.241Z,0.00
2018-12-04T04:42:34.265Z,0.00
2018-12-04T04:43:34.226Z,0.00
2018-12-04T04:44:34.213Z,0.00
2018-12-04T04:45:34.218Z,0.00
2018-12-04T04:46:34.227Z,0.00
2018-12-04T04:47:34.183Z,0.00
2018-12-04T04:48:34.165Z,0.00
2018-12-04T04:49:34.155Z,0.00
2018-12-04T04:50:34.140Z,0.00
2018-12-04T04:51:34.140Z,0.00
2018-12-04T04:52:34.172Z,0.00
2018-12-04T04:53:34.111Z,0.00
2018-12-04T04:54:34.135Z,0.00
2018-12-04T04:55:34.087Z,0.00
2018-12-04T04:56:34.077Z,0.00
2018-12-04T04:57:34.145Z,0.00
2018-12-04T04:58:34.063Z,0.00
2018-12-04T04:59:34.052Z,0.00
2018-12-04T05:00:34.036Z,0.00
2018-12-04T05:01:34.087Z,0.00
2018-12-04T05:02:34.010Z,0.00
2018-12-04T05:03:34.008Z,0.00
2018-12-04T05:04:33.996Z,0.00
2018-12-04T05:05:33.999Z,0.00
2018-12-04T05:06:33.967Z,0.00
2018-12-04T05:07:33.963Z,0.00
2018-12-04T05:08:34.017Z,0.00
2018-12-04T05:09:33.935Z,0.00
2018-12-04T05:10:33.925Z,0.00
2018-12-04T05:11:33.948Z,0.00
2018-12-04T05:12:33.898Z,0.00
2018-12-04T05:13:33.901Z,0.00
2018-12-04T05:14:33.898Z,0.00
2018-12-04T05:15:33.894Z,0.00
2018-12-04T05:16:33.861Z,0.00
2018-12-04T05:17:33.844Z,0.00
2018-12-04T05:18:33.851Z,0.00
2018-12-04T05:19:33.887Z,0.00
2018-12-04T05:20:33.879Z,0.00
2018-12-04T05:21:33.807Z,0.00
2018-12-04T05:22:33.823Z,0.00
2018-12-04T05:23:33.818Z,0.00
2018-12-04T05:24:33.767Z,0.00
2018-12-04T05:25:33.781Z,0.00
2018-12-04T05:26:33.762Z,0.00
2018-12-04T05:27:33.737Z,0.00
2018-12-04T05:28:33.727Z,0.00
2018-12-04T05:29:33.710Z,0.00
2018-12-04T05:30:33.717Z,0.00
2018-12-04T05:31:33.723Z,0.00
2018-12-04T05:32:33.687Z,0.00
2018-12-04T05:33:33.675Z,0.00
2018-12-04T05:34:33.657Z,0.00
2018-12-04T05:35:33.678Z,0.00
2018-12-04T05:36:33.653Z,0.00
2018-12-04T05:37:33.627Z,0.00
2018-12-04T05:38:33.619Z,0.00
2018-12-04T05:39:33.643Z,0.00
2018-12-04T05:40:33.609Z,0.00
2018-12-04T05:41:33.593Z,0.00
2018-12-04T05:42:33.570Z,0.00
2018-12-04T05:43:33.560Z,0.00
2018-12-04T05:44:33.549Z,0.00
2018-12-04T05:45:33.575Z,0.00
2018-12-04T05:46:33.542Z,0.00
2018-12-04T05:47:33.546Z,0.00
2018-12-04T05:48:33.519Z,0.00
2018-12-04T05:49:33.498Z,0.00
2018-12-04T05:50:33.495Z,0.00
2018-12-04T05:51:33.516Z,0.00
2018-12-04T05:52:33.494Z,0.00
2018-12-04T05:53:33.454Z,0.00
2018-12-04T05:54:33.443Z,0.00
2018-12-04T05:55:33.430Z,0.00
2018-12-04T05:56:33.447Z,0.00
2018-12-04T05:57:33.472Z,0.00
2018-12-04T05:58:33.397Z,0.00
2018-12-04T05:59:33.385Z,0.00
2018-12-04T06:00:33.398Z,0.00
2018-12-04T06:01:33.419Z,0.00
2018-12-04T06:02:33.389Z,0.00
2018-12-04T06:03:33.336Z,0.00
2018-12-04T06:04:33.350Z,0.00
2018-12-04T06:05:33.939Z,0.00
2018-12-04T06:06:33.320Z,0.00
2018-12-04T06:07:33.339Z,0.00
2018-12-04T06:08:33.348Z,0.00
2018-12-04T06:09:33.328Z,0.00
2018-12-04T06:10:33.273Z,0.00
2018-12-04T06:11:33.300Z,0.00
2018-12-04T06:12:33.244Z,0.00
2018-12-04T06:13:33.266Z,0.00
2018-12-04T06:14:33.267Z,0.00
2018-12-04T06:15:33.243Z,0.00
2018-12-04T06:16:33.207Z,0.00
2018-12-04T06:17:33.207Z,0.00
2018-12-04T06:18:33.204Z,0.00
2018-12-04T06:19:33.182Z,0.00
2018-12-04T06:20:33.163Z,0.00
2018-12-04T06:21:33.147Z,0.00
2018-12-04T06:22:33.151Z,0.00
2018-12-04T06:23:33.129Z,0.00
2018-12-04T06:24:33.154Z,0.00
2018-12-04T06:25:33.155Z,0.00
2018-12-04T06:26:33.103Z,0.00
2018-12-04T06:27:33.086Z,0.00
2018-12-04T06:28:33.137Z,0.00
2018-12-04T06:29:33.092Z,4.00
2018-12-04T06:30:33.049Z,4.00
2018-12-04T06:31:33.052Z,0.00
2018-12-04T06:32:33.050Z,0.00
2018-12-04T06:33:33.019Z,0.00
2018-12-04T06:34:33.010Z,0.00
2018-12-04T06:35:33.017Z,0.00
2018-12-04T06:36:33.001Z,4.00
2018-12-04T06:37:32.975Z,4.00
2018-12-04T06:38:32.979Z,4.00
2018-12-04T06:39:32.954Z,0.00
2018-12-04T06:40:32.972Z,4.00
2018-12-04T06:41:32.934Z,4.00
2018-12-04T06:42:32.941Z,4.00
2018-12-04T06:43:32.913Z,8.00
2018-12-04T06:44:32.908Z,8.00
2018-12-04T06:45:32.891Z,8.00
2018-12-04T06:46:32.980Z,12.00
2018-12-04T06:47:32.883Z,16.00
2018-12-04T06:48:32.853Z,16.00
2018-12-04T06:49:32.856Z,16.00
2018-12-04T06:50:32.833Z,24.00
2018-12-04T06:51:32.844Z,28.00
2018-12-04T06:52:32.820Z,32.00
2018-12-04T06:53:32.808Z,36.00
2018-12-04T06:54:32.840Z,44.00
2018-12-04T06:55:32.798Z,44.00
2018-12-04T06:56:32.814Z,52.00
2018-12-04T06:57:32.762Z,60.00
2018-12-04T06:58:32.754Z,68.00
2018-12-04T06:59:32.748Z,76.00
2018-12-04T07:00:32.765Z,88.00
2018-12-04T07:01:32.722Z,100.00
2018-12-04T07:02:32.729Z,112.00
2018-12-04T07:03:32.694Z,128.00
2018-12-04T07:04:32.693Z,144.00
2018-12-04T07:05:32.698Z,168.00
2018-12-04T07:06:32.662Z,188.00
2018-12-04T07:07:32.667Z,208.00
2018-12-04T07:08:32.655Z,228.00
2018-12-04T07:09:32.642Z,252.00
2018-12-04T07:10:32.630Z,276.00
2018-12-04T07:11:32.611Z,304.00
2018-12-04T07:12:32.753Z,332.00
2018-12-04T07:13:32.661Z,364.00
2018-12-04T07:14:32.586Z,392.00
2018-12-04T07:15:32.575Z,428.00
2018-12-04T07:16:32.579Z,460.00
2018-12-04T07:17:32.589Z,492.00
2018-12-04T07:18:32.553Z,532.00
2018-12-04T07:19:32.581Z,564.00
2018-12-04T07:20:32.563Z,608.00
2018-12-04T07:21:32.515Z,644.00
2018-12-04T07:22:32.517Z,684.00
2018-12-04T07:23:32.533Z,728.00
2018-12-04T07:24:32.476Z,772.00
2018-12-04T07:25:32.457Z,824.00
2018-12-04T07:26:32.443Z,880.00
2018-12-04T07:27:32.499Z,944.00
2018-12-04T07:28:32.421Z,1024.00
2018-12-04T07:29:32.414Z,1128.00
2018-12-04T07:30:32.399Z,1224.00
2018-12-04T07:31:32.391Z,1264.00
2018-12-04T07:32:32.403Z,1248.00
2018-12-04T07:33:32.412Z,1240.00
2018-12-04T07:34:32.362Z,1264.00
2018-12-04T07:35:32.383Z,1308.00
2018-12-04T07:36:32.361Z,1368.00
2018-12-04T07:37:32.347Z,1448.00
2018-12-04T07:38:32.329Z,1548.00
2018-12-04T07:39:32.444Z,1620.00
2018-12-04T07:40:32.306Z,1668.00
2018-12-04T07:41:32.394Z,1684.00
2018-12-04T07:42:32.402Z,1692.00
2018-12-04T07:43:32.258Z,1700.00
2018-12-04T07:44:32.279Z,1728.00
2018-12-04T07:45:32.262Z,1768.00
2018-12-04T07:46:32.249Z,1816.00
2018-12-04T07:47:32.209Z,1876.00
2018-12-04T07:48:32.250Z,1944.00
2018-12-04T07:49:32.212Z,2004.00
2018-12-04T07:50:32.229Z,2056.00
2018-12-04T07:51:32.853Z,2120.00
2018-12-04T07:52:32.167Z,2184.00
2018-12-04T07:53:32.161Z,2228.00
2018-12-04T07:54:32.135Z,2264.00
2018-12-04T07:55:32.144Z,2292.00
2018-12-04T07:56:32.141Z,2340.00
2018-12-04T07:57:32.109Z,2396.00
2018-12-04T07:58:32.094Z,2460.00
2018-12-04T07:59:32.094Z,2536.00
2018-12-04T08:00:32.081Z,2628.00
2018-12-04T08:01:32.132Z,2748.00
2018-12-04T08:02:32.088Z,2872.00
2018-12-04T08:03:32.056Z,3008.00
2018-12-04T08:04:32.050Z,3524.00
2018-12-04T08:05:32.040Z,3824.00
2018-12-04T08:06:32.080Z,5892.00
2018-12-04T08:07:32.109Z,6256.00
2018-12-04T08:08:32.185Z,7004.00
2018-12-04T08:09:31.999Z,7132.00
2018-12-04T08:10:31.963Z,7304.00
2018-12-04T08:11:32.182Z,7780.00
2018-12-04T08:12:32.072Z,8040.00
2018-12-04T08:13:32.212Z,8176.00
2018-12-04T08:15:42.637Z,8512.00
2018-12-04T08:16:42.321Z,8756.00
2018-12-04T08:17:43.016Z,9116.00
2018-12-04T08:18:42.244Z,9508.00
2018-12-04T08:19:42.163Z,10036.00
2018-12-04T08:20:42.115Z,10660.00
2018-12-04T08:21:42.104Z,11004.00
2018-12-04T08:22:42.115Z,11008.00
2018-12-04T08:23:42.091Z,10548.00
2018-12-04T08:24:42.095Z,10996.00
2018-12-04T08:25:42.056Z,11092.00
2018-12-04T08:26:42.043Z,11004.00
2018-12-04T08:27:42.090Z,11164.00
2018-12-04T08:28:42.058Z,11240.00
2018-12-04T08:29:42.029Z,11592.00
2018-12-04T08:30:43.152Z,12052.00
2018-12-04T08:31:41.995Z,7580.00
2018-12-04T08:32:41.975Z,4672.00
2018-12-04T08:33:42.081Z,4660.00
2018-12-04T08:34:42.024Z,4976.00
2018-12-04T08:35:42.019Z,11520.00
2018-12-04T08:36:41.947Z,13604.00
2018-12-04T08:37:42.008Z,14080.00
2018-12-04T08:38:41.945Z,14752.00
2018-12-04T08:39:41.926Z,12060.00
2018-12-04T08:40:41.895Z,13592.00
2018-12-04T08:41:41.892Z,13368.00
2018-12-04T08:42:41.876Z,11904.00
2018-12-04T08:43:41.866Z,9960.00
2018-12-04T08:44:41.936Z,9440.00
2018-12-04T08:45:41.909Z,7888.00
2018-12-04T08:46:41.860Z,6980.00
2018-12-04T08:47:41.855Z,6600.00
2018-12-04T08:48:41.868Z,6356.00
2018-12-04T08:49:41.846Z,6368.00
2018-12-04T08:50:41.801Z,6156.00
2018-12-04T08:51:41.778Z,5960.00
2018-12-04T08:52:41.804Z,5904.00
2018-12-04T08:53:41.917Z,5720.00
2018-12-04T08:54:41.810Z,5492.00
2018-12-04T08:55:41.736Z,5608.00
2018-12-04T08:56:41.762Z,5640.00
2018-12-04T08:57:41.736Z,5728.00
2018-12-04T08:58:41.769Z,5628.00
2018-12-04T08:59:41.703Z,5700.00
2018-12-04T09:00:41.694Z,5768.00
2018-12-04T09:01:41.668Z,5772.00
2018-12-04T09:02:41.727Z,5760.00
2018-12-04T09:03:41.669Z,5684.00
2018-12-04T09:04:41.632Z,5540.00
2018-12-04T09:05:41.664Z,5360.00
2018-12-04T09:06:41.734Z,5252.00
2018-12-04T09:07:41.598Z,5332.00
2018-12-04T09:08:41.647Z,5396.00
2018-12-04T09:09:41.592Z,5352.00
2018-12-04T09:10:41.566Z,5416.00
2018-12-04T09:11:41.557Z,5432.00
2018-12-04T09:12:41.565Z,5440.00
2018-12-04T09:13:41.747Z,5448.00
2018-12-04T09:14:41.574Z,5452.00
2018-12-04T09:16:52.674Z,5468.00
2018-12-04T09:17:52.328Z,5444.00
2018-12-04T09:19:01.149Z,5452.00
2018-12-04T09:34:31.635Z,5680.00
2018-12-04T09:35:31.342Z,5692.00
2018-12-04T09:36:31.132Z,5708.00
2018-12-04T09:37:31.092Z,5740.00
2018-12-04T09:38:31.197Z,5760.00
2018-12-04T09:39:31.902Z,5764.00
2018-12-04T09:40:31.188Z,5764.00
2018-12-04T09:41:31.051Z,5764.00
2018-12-04T09:42:31.093Z,5764.00
2018-12-04T09:43:31.006Z,5780.00
2018-12-04T09:44:30.999Z,5788.00
2018-12-04T09:45:31.013Z,5852.00
2018-12-04T09:46:30.983Z,5864.00
2018-12-04T09:47:31.025Z,5856.00
2018-12-04T09:48:30.962Z,5836.00
2018-12-04T09:49:30.958Z,5836.00
2018-12-04T09:50:30.934Z,5828.00
2018-12-04T09:51:30.951Z,5808.00
2018-12-04T09:52:30.931Z,5800.00
2018-12-04T09:53:30.971Z,5800.00
2018-12-04T09:54:30.910Z,5820.00
2018-12-04T09:55:30.938Z,5800.00
2018-12-04T09:56:30.889Z,5808.00
2018-12-04T09:57:30.858Z,5868.00
2018-12-04T09:58:30.875Z,5916.00
2018-12-04T09:59:30.833Z,5972.00
2018-12-04T10:00:30.823Z,6032.00
2018-12-04T10:01:30.979Z,6032.00
2018-12-04T10:02:30.802Z,6032.00
2018-12-04T10:03:30.829Z,6020.00
2018-12-04T10:04:30.849Z,6000.00
2018-12-04T10:05:32.161Z,5964.00
2018-12-04T10:06:30.808Z,5960.00
2018-12-04T10:07:30.810Z,5972.00
2018-12-04T10:08:30.771Z,5960.00
2018-12-04T10:09:30.764Z,5956.00
2018-12-04T10:10:30.760Z,5940.00
2018-12-04T10:11:30.778Z,5924.00
2018-12-04T10:12:30.709Z,5940.00
2018-12-04T10:13:32.417Z,5948.00
2018-12-04T10:14:30.693Z,5924.00
2018-12-04T10:15:30.738Z,5896.00
2018-12-04T10:16:31.409Z,5884.00
2018-12-04T10:17:30.669Z,5892.00
2018-12-04T10:18:30.705Z,5920.00
2018-12-04T10:19:30.688Z,5936.00
2018-12-04T10:20:30.643Z,5972.00
2018-12-04T10:21:30.729Z,6016.00
2018-12-04T10:22:30.622Z,6028.00
2018-12-04T10:24:49.495Z,6048.00
2018-12-04T10:27:14.072Z,6008.00
2018-12-04T10:28:29.386Z,5996.00
2018-12-04T10:30:27.640Z,6028.00
2018-12-04T10:31:27.118Z,6060.00
2018-12-04T10:32:27.120Z,6064.00
2018-12-04T10:33:27.124Z,6076.00
2018-12-04T10:34:27.073Z,6108.00
2018-12-04T10:35:27.095Z,6124.00
2018-12-04T10:36:27.039Z,6152.00
2018-12-04T10:37:27.093Z,6172.00
2018-12-04T10:38:27.046Z,6232.00
2018-12-04T10:39:27.049Z,6244.00
2018-12-04T10:40:26.996Z,6244.00
2018-12-04T10:41:27.024Z,6252.00
2018-12-04T10:42:27.007Z,6244.00
2018-12-04T10:43:27.018Z,6240.00
2018-12-04T10:44:26.954Z,6252.00
2018-12-04T10:45:26.942Z,6268.00
2018-12-04T10:46:27.042Z,6312.00
2018-12-04T10:47:26.911Z,6308.00
2018-12-04T10:48:26.921Z,6312.00
2018-12-04T10:49:26.943Z,6296.00
2018-12-04T10:50:26.894Z,6248.00
2018-12-04T10:51:26.874Z,6224.00
2018-12-04T10:52:26.875Z,6212.00
2018-12-04T10:53:26.868Z,6224.00
2018-12-04T10:54:26.839Z,6232.00
2018-12-04T10:55:26.857Z,6264.00
2018-12-04T10:56:26.839Z,6284.00
2018-12-04T10:57:26.808Z,6276.00
2018-12-04T10:58:26.821Z,6284.00
2018-12-04T10:59:26.913Z,6288.00
2018-12-04T11:00:26.795Z,6316.00
2018-12-04T11:01:26.772Z,6344.00
2018-12-04T11:02:26.809Z,6368.00
2018-12-04T11:03:26.740Z,6388.00
2018-12-04T11:04:26.734Z,6400.00
2018-12-04T11:05:26.747Z,6396.00
2018-12-04T11:06:26.762Z,6384.00
2018-12-04T11:09:44.716Z,6392.00
2018-12-04T11:11:52.115Z,6432.00
2018-12-04T11:13:58.701Z,6448.00
2018-12-04T11:14:56.361Z,6440.00
2018-12-04T11:15:56.356Z,6424.00
2018-12-04T11:16:56.285Z,6412.00
2018-12-04T11:17:56.299Z,6376.00
2018-12-04T11:18:56.282Z,6424.00
2018-12-04T11:19:56.255Z,6484.00
2018-12-04T11:20:56.237Z,6496.00
2018-12-04T11:21:56.245Z,6504.00
2018-12-04T11:22:56.242Z,6500.00
2018-12-04T11:23:56.218Z,6500.00
2018-12-04T11:24:56.203Z,6492.00
2018-12-04T11:25:56.181Z,6464.00
2018-12-04T11:26:56.240Z,6460.00
2018-12-04T11:27:56.184Z,6444.00
2018-12-04T11:28:56.160Z,6448.00
2018-12-04T11:29:56.205Z,6432.00
2018-12-04T11:30:56.162Z,6416.00
2018-12-04T11:31:56.122Z,6400.00
2018-12-04T11:32:56.141Z,6400.00
2018-12-04T11:33:56.093Z,6408.00
2018-12-04T11:34:56.093Z,6424.00
2018-12-04T11:35:56.075Z,6440.00
2018-12-04T11:36:56.128Z,6464.00
2018-12-04T11:37:56.058Z,6464.00
2018-12-04T11:38:56.065Z,6480.00
2018-12-04T11:39:56.090Z,6484.00
2018-12-04T11:40:56.032Z,6468.00
2018-12-04T11:41:56.035Z,6440.00
2018-12-04T11:42:56.004Z,6440.00
2018-12-04T11:43:56.028Z,6440.00
2018-12-04T11:44:55.976Z,6432.00
2018-12-04T11:45:55.962Z,6440.00
2018-12-04T11:46:55.974Z,6432.00
2018-12-04T11:47:55.981Z,6428.00
2018-12-04T11:48:55.932Z,6400.00
2018-12-04T11:49:55.935Z,6340.00
2018-12-04T11:51:00.201Z,6284.00
2018-12-04T11:51:55.994Z,6248.00
2018-12-04T11:52:55.888Z,6228.00
2018-12-04T11:53:55.870Z,6212.00
2018-12-04T11:54:55.951Z,6216.00
2018-12-04T11:55:55.866Z,6204.00
2018-12-04T11:56:55.838Z,6204.00
2018-12-04T11:57:55.830Z,6192.00
2018-12-04T11:58:55.815Z,6164.00
2018-12-04T11:59:55.835Z,6128.00
2018-12-04T12:00:55.798Z,6080.00
2018-12-04T12:01:55.837Z,6080.00
2018-12-04T12:02:55.774Z,6096.00
2018-12-04T12:03:55.774Z,6040.00
2018-12-04T12:04:55.772Z,6032.00
2018-12-04T12:05:55.752Z,6032.00
2018-12-04T12:06:55.739Z,6036.00
2018-12-04T12:07:55.739Z,6040.00
2018-12-04T12:08:55.713Z,6024.00
2018-12-04T12:09:55.708Z,6016.00
2018-12-04T12:10:55.696Z,6004.00
2018-12-04T12:11:55.726Z,6004.00
2018-12-04T12:12:55.666Z,5992.00
2018-12-04T12:13:55.658Z,5944.00
2018-12-04T12:14:55.641Z,5980.00
2018-12-04T12:15:55.629Z,5960.00
2018-12-04T12:16:55.617Z,5920.00
2018-12-04T12:17:55.625Z,5900.00
2018-12-04T12:18:55.602Z,5880.00
2018-12-04T12:19:55.581Z,5856.00
2018-12-04T12:20:55.599Z,5840.00
2018-12-04T12:21:55.828Z,5824.00
2018-12-04T12:22:55.567Z,5860.00
2018-12-04T12:23:55.558Z,5648.00
2018-12-04T12:24:55.531Z,5644.00
2018-12-04T12:25:55.577Z,5688.00
2018-12-04T12:26:55.606Z,5708.00
2018-12-04T12:27:55.513Z,5576.00
2018-12-04T12:28:55.493Z,5720.00
2018-12-04T12:29:55.475Z,5672.00
2018-12-04T12:30:55.464Z,5688.00
2018-12-04T12:31:55.457Z,5696.00
2018-12-04T12:32:55.460Z,5748.00
2018-12-04T12:33:55.993Z,5784.00
2018-12-04T12:34:55.436Z,5808.00
2018-12-04T12:35:55.408Z,5800.00
2018-12-04T12:36:55.463Z,5760.00
2018-12-04T12:37:55.379Z,5744.00
2018-12-04T12:38:55.391Z,5720.00
2018-12-04T12:39:55.377Z,5700.00
2018-12-04T12:40:55.353Z,5676.00
2018-12-04T12:41:55.342Z,5700.00
2018-12-04T12:42:55.380Z,5692.00
2018-12-04T12:44:55.312Z,5560.00
2018-12-04T12:45:55.304Z,5644.00
2018-12-04T12:46:55.340Z,5636.00
2018-12-04T12:47:55.298Z,5676.00
2018-12-04T12:48:55.267Z,5744.00
2018-12-04T12:49:55.281Z,5684.00
2018-12-04T12:50:55.260Z,5596.00
2018-12-04T12:51:55.241Z,5580.00
2018-12-04T12:52:55.257Z,5552.00
2018-12-04T12:53:55.280Z,5536.00
2018-12-04T12:54:55.222Z,5524.00
2018-12-04T12:55:55.195Z,5512.00
2018-12-04T12:56:55.179Z,5492.00
2018-12-04T12:57:55.167Z,5480.00
2018-12-04T12:58:55.226Z,5472.00
2018-12-04T12:59:55.218Z,5468.00
2018-12-04T13:00:55.232Z,5468.00
2018-12-04T13:01:55.121Z,5476.00
2018-12-04T13:02:55.120Z,5476.00
2018-12-04T13:03:55.110Z,5424.00
2018-12-04T13:04:55.127Z,5412.00
2018-12-04T13:05:55.136Z,5420.00
2018-12-04T13:06:55.077Z,5440.00
2018-12-04T13:07:55.058Z,5532.00
2018-12-04T13:08:55.047Z,5600.00
2018-12-04T13:09:55.050Z,5976.00